Time;durP1;ratioP1;P1;durP2;ratioP2;P2;SDS_P1;SDS_P2;PMS_P1;PMS_P2;Temp;Humidity;BMP_temperature;BMP_pressure;BME280_temperature;BME280_humidity;BME280_pressure;Samples;Min_cycle;Max_cycle;Signal;HPM_P1;HPM_P2
2022/09/01 00:01:19;;;;;;;1.33;1.00;;;15.70;89.00;;;;;;4166607;28;20045;-86
2022/09/01 00:03:23;;;;;;;3.15;1.17;;;15.70;89.20;;;;;;4131442;28;20127;-86
2022/09/01 00:05:24;;;;;;;1.58;1.00;;;15.60;89.00;;;;;;4166909;28;20045;-86
2022/09/01 00:07:30;;;;;;;1.75;0.85;;;15.50;89.00;;;;;;4133655;28;20061;-86
2022/09/01 00:09:31;;;;;;;0.88;0.85;;;15.30;89.00;;;;;;4166537;28;20038;-86
2022/09/01 00:11:32;;;;;;;1.55;0.80;;;15.50;89.20;;;;;;4166737;28;20544;-86
2022/09/01 00:13:33;;;;;;;3.95;0.90;;;15.40;89.20;;;;;;4133128;28;20129;-86
2022/09/01 00:15:35;;;;;;;1.00;0.80;;;15.40;89.20;;;;;;4166883;28;20269;-86
2022/09/01 00:17:36;;;;;;;0.88;0.70;;;15.40;89.30;;;;;;4148471;28;20108;-87
2022/09/01 00:19:38;;;;;;;2.25;1.00;;;15.30;89.10;;;;;;4163785;28;20045;-86
2022/09/01 00:21:42;;;;;;;1.45;0.73;;;15.30;89.20;;;;;;4165275;28;20389;-85
2022/09/01 00:23:43;;;;;;;3.08;0.90;;;15.20;89.30;;;;;;4166896;28;20124;-86
2022/09/01 00:25:44;;;;;;;2.15;0.90;;;15.20;89.30;;;;;;4166800;28;20048;-86
2022/09/01 00:27:48;;;;;;;5.40;1.05;;;15.20;89.30;;;;;;4166798;28;20045;-86
2022/09/01 00:29:48;;;;;;;1.45;0.68;;;15.10;89.30;;;;;;4149369;28;20420;-87
2022/09/01 00:31:50;;;;;;;1.80;0.73;;;15.10;89.60;;;;;;4150230;28;20042;-85
2022/09/01 00:33:51;;;;;;;1.58;0.77;;;15.00;89.60;;;;;;4150151;28;20463;-86
2022/09/01 00:35:52;;;;;;;3.85;0.80;;;15.00;89.70;;;;;;4167461;28;20046;-86
2022/09/01 00:37:53;;;;;;;1.63;0.90;;;15.00;89.70;;;;;;4160203;28;20042;-86
2022/09/01 00:39:54;;;;;;;0.95;0.70;;;15.00;89.90;;;;;;4161250;28;20057;-86
2022/09/01 00:41:54;;;;;;;2.92;0.93;;;15.00;90.00;;;;;;4166087;28;20049;-85
2022/09/01 00:44:07;;;;;;;1.70;0.65;;;14.90;90.00;;;;;;4166339;28;20037;-85
2022/09/01 00:46:15;;;;;;;4.05;0.93;;;14.90;90.10;;;;;;4165896;28;20052;-85
2022/09/01 00:48:16;;;;;;;1.75;1.48;;;14.90;90.10;;;;;;4166041;28;20045;-86
2022/09/01 00:50:19;;;;;;;2.45;0.90;;;14.90;90.00;;;;;;4166341;28;20112;-85
2022/09/01 00:52:36;;;;;;;3.30;1.02;;;14.90;90.00;;;;;;4165837;28;20492;-86
2022/09/01 00:54:42;;;;;;;1.67;0.90;;;14.90;90.20;;;;;;4165979;28;20514;-85
2022/09/01 00:56:45;;;;;;;3.00;1.02;;;14.90;90.10;;;;;;4148520;28;20139;-85
2022/09/01 00:58:46;;;;;;;2.30;1.30;;;14.90;90.20;;;;;;4165902;28;20048;-85
2022/09/01 01:00:49;;;;;;;1.80;0.90;;;14.90;90.20;;;;;;4165860;28;20037;-86
2022/09/01 01:02:54;;;;;;;2.60;0.90;;;14.50;90.10;;;;;;4145946;28;20058;-86
2022/09/01 01:04:58;;;;;;;1.23;0.85;;;15.00;90.20;;;;;;4165343;28;20103;-86
2022/09/01 01:07:02;;;;;;;2.45;0.77;;;15.00;90.20;;;;;;4148111;28;20545;-86
2022/09/01 01:09:04;;;;;;;2.80;1.08;;;15.00;90.20;;;;;;4147654;28;20053;-85
2022/09/01 01:11:16;;;;;;;1.45;1.05;;;15.10;90.20;;;;;;4165059;28;20419;-86
2022/09/01 01:13:19;;;;;;;0.90;0.70;;;15.10;90.30;;;;;;4158077;28;20050;-85
2022/09/01 01:15:20;;;;;;;2.50;1.55;;;15.10;90.20;;;;;;4131367;28;20086;-86
2022/09/01 01:17:22;;;;;;;2.03;1.10;;;15.10;90.20;;;;;;4148770;28;20104;-85
2022/09/01 01:24:37;;;;;;;1.05;0.95;;;15.20;90.40;;;;;;4148818;28;20053;-86
2022/09/01 01:26:38;;;;;;;6.20;1.10;;;15.20;90.30;;;;;;4131186;28;20495;-86
2022/09/01 01:28:43;;;;;;;3.38;0.90;;;15.20;90.30;;;;;;4133963;28;20041;-86
2022/09/01 01:30:50;;;;;;;2.20;0.90;;;15.20;90.40;;;;;;4163743;28;20068;-85
2022/09/01 01:32:51;;;;;;;1.80;0.90;;;15.20;90.50;;;;;;4181101;28;20045;-85
2022/09/01 01:34:52;;;;;;;1.70;0.93;;;15.20;90.50;;;;;;4163577;28;20060;-85
2022/09/01 01:36:55;;;;;;;1.00;0.88;;;15.10;90.50;;;;;;4147153;28;20085;-85
2022/09/01 01:39:00;;;;;;;1.33;1.00;;;15.10;90.60;;;;;;4163580;28;20120;-86
2022/09/01 01:41:02;;;;;;;2.05;0.93;;;15.20;90.70;;;;;;4181271;28;20499;-86
2022/09/01 01:43:04;;;;;;;0.98;0.88;;;15.30;90.80;;;;;;4181245;28;20049;-86
2022/09/01 01:45:06;;;;;;;3.45;1.02;;;15.10;90.70;;;;;;4163497;28;20630;-87
2022/09/01 01:47:11;;;;;;;1.10;0.88;;;15.10;90.80;;;;;;4169613;28;20567;-86
2022/09/01 01:49:18;;;;;;;0.73;0.70;;;15.10;90.90;;;;;;4131292;28;20046;-85
2022/09/01 01:51:23;;;;;;;1.92;1.00;;;15.10;91.00;;;;;;4130858;28;20129;-85
2022/09/01 01:53:24;;;;;;;1.15;0.90;;;14.70;91.00;;;;;;4148348;28;20060;-85
2022/09/01 01:55:27;;;;;;;2.28;1.00;;;15.10;91.20;;;;;;4147658;28;20403;-86
2022/09/01 01:57:30;;;;;;;1.52;1.02;;;15.10;91.20;;;;;;4148424;28;20050;-85
2022/09/01 01:59:32;;;;;;;1.15;0.82;;;15.10;91.20;;;;;;4147216;28;20046;-84
2022/09/01 02:01:33;;;;;;;1.52;1.00;;;15.20;91.30;;;;;;4148467;28;20403;-86
2022/09/01 02:03:37;;;;;;;2.60;0.90;;;15.20;91.30;;;;;;4134695;28;20133;-85
2022/09/01 02:05:38;;;;;;;0.85;0.85;;;15.20;91.30;;;;;;4114045;28;20054;-86
2022/09/01 02:07:42;;;;;;;1.80;0.85;;;15.20;91.30;;;;;;4148257;28;20077;-86
2022/09/01 02:09:46;;;;;;;2.97;1.08;;;15.20;91.40;;;;;;4130644;28;20069;-86
2022/09/01 02:11:48;;;;;;;3.17;1.08;;;15.20;91.40;;;;;;4132734;28;20047;-86
2022/09/01 02:13:48;;;;;;;1.75;1.38;;;15.20;91.50;;;;;;4147610;28;20439;-85
2022/09/01 02:15:52;;;;;;;1.10;1.00;;;15.20;91.50;;;;;;4148051;28;20165;-86
2022/09/01 02:17:59;;;;;;;1.20;0.90;;;15.20;91.50;;;;;;4147853;28;20124;-86
2022/09/01 02:20:00;;;;;;;2.30;0.90;;;15.20;91.60;;;;;;4148047;28;20515;-86
2022/09/01 02:22:00;;;;;;;1.50;1.35;;;15.20;91.60;;;;;;4140557;28;20046;-87
2022/09/01 02:24:07;;;;;;;1.17;1.00;;;15.30;91.70;;;;;;4125780;28;20042;-86
2022/09/01 02:26:10;;;;;;;1.60;0.98;;;15.20;91.90;;;;;;4164159;28;20435;-87
2022/09/01 02:28:14;;;;;;;1.10;1.00;;;15.30;91.70;;;;;;4164205;28;20510;-86
2022/09/01 02:30:15;;;;;;;1.00;0.80;;;15.20;91.70;;;;;;4164501;28;20107;-87
2022/09/01 02:32:20;;;;;;;1.10;0.90;;;15.20;91.70;;;;;;4164092;28;20053;-87
2022/09/01 02:34:23;;;;;;;1.08;0.98;;;15.20;91.70;;;;;;4164241;28;20048;-86
2022/09/01 02:36:24;;;;;;;1.35;1.00;;;15.10;91.70;;;;;;4146832;28;20050;-86
2022/09/01 02:38:28;;;;;;;1.40;1.08;;;15.10;91.80;;;;;;4146713;28;20054;-86
2022/09/01 02:40:30;;;;;;;1.42;1.10;;;15.10;91.90;;;;;;4164013;28;20132;-87
2022/09/01 02:42:30;;;;;;;1.17;0.90;;;15.00;91.90;;;;;;4152515;28;20045;-85
2022/09/01 02:44:31;;;;;;;1.17;0.88;;;15.00;92.00;;;;;;4130802;28;20090;-86
2022/09/01 02:46:33;;;;;;;1.67;1.00;;;15.00;91.90;;;;;;4147138;28;20125;-87
2022/09/01 02:48:40;;;;;;;2.08;0.93;;;15.00;91.90;;;;;;4147682;28;20046;-87
2022/09/01 02:50:41;;;;;;;1.15;0.90;;;15.00;91.90;;;;;;4130358;28;20047;-87
2022/09/01 02:52:42;;;;;;;2.15;1.00;;;15.00;91.90;;;;;;4130309;28;20386;-86
2022/09/01 02:54:48;;;;;;;1.83;1.10;;;14.90;91.90;;;;;;4130100;28;20112;-86
2022/09/01 02:56:59;;;;;;;1.75;1.15;;;14.90;92.10;;;;;;4130575;28;20069;-87
2022/09/01 02:59:01;;;;;;;2.97;1.02;;;14.90;92.20;;;;;;4147493;28;20412;-87
2022/09/01 03:01:02;;;;;;;4.95;1.00;;;14.80;92.10;;;;;;4133715;28;20054;-87
2022/09/01 03:03:04;;;;;;;1.20;0.80;;;14.80;92.20;;;;;;4124657;28;20409;-86
2022/09/01 03:05:07;;;;;;;1.25;0.82;;;14.80;92.20;;;;;;4114393;28;20053;-87
2022/09/01 03:07:08;;;;;;;1.38;1.02;;;14.70;92.30;;;;;;4130410;28;20054;-87
2022/09/01 03:09:13;;;;;;;1.70;0.90;;;14.70;92.40;;;;;;4147480;28;20099;-87
2022/09/01 03:11:14;;;;;;;1.40;0.90;;;14.70;92.40;;;;;;4130656;28;20079;-87
2022/09/01 03:13:22;;;;;;;0.82;0.82;;;14.70;92.40;;;;;;4147610;28;20500;-86
2022/09/01 03:15:23;;;;;;;1.17;0.77;;;14.70;92.40;;;;;;4114258;28;20078;-87
2022/09/01 03:17:24;;;;;;;2.65;1.10;;;14.70;92.50;;;;;;4122386;28;20054;-87
2022/09/01 03:19:26;;;;;;;0.70;0.70;;;14.60;92.50;;;;;;4147863;28;20115;-87
2022/09/01 03:21:27;;;;;;;1.10;0.80;;;14.60;92.50;;;;;;4147713;28;20046;-86
2022/09/01 03:23:32;;;;;;;3.90;0.90;;;14.60;92.50;;;;;;4163493;28;20049;-86
2022/09/01 03:25:35;;;;;;;2.10;1.00;;;14.60;92.50;;;;;;4181420;28;20055;-87
2022/09/01 03:27:36;;;;;;;0.98;0.82;;;14.60;92.50;;;;;;4164054;28;20064;-86
2022/09/01 03:29:38;;;;;;;0.80;0.70;;;14.60;92.50;;;;;;4147192;28;20105;-86
2022/09/01 03:31:39;;;;;;;1.88;0.80;;;14.60;92.60;;;;;;4147534;28;20551;-86
2022/09/01 03:33:40;;;;;;;1.55;0.80;;;14.60;92.60;;;;;;4181620;28;20045;-86
2022/09/01 03:35:42;;;;;;;0.80;0.80;;;14.60;92.60;;;;;;4181523;28;20049;-86
2022/09/01 03:37:43;;;;;;;2.92;0.95;;;14.60;92.60;;;;;;4180886;28;20103;-86
2022/09/01 03:39:45;;;;;;;3.10;1.10;;;14.50;92.60;;;;;;4164034;28;20076;-87
2022/09/01 03:41:46;;;;;;;0.93;0.60;;;14.60;92.70;;;;;;4181796;28;20136;-87
2022/09/01 03:43:48;;;;;;;1.60;0.90;;;14.60;92.70;;;;;;4164775;28;20491;-86
2022/09/01 03:45:49;;;;;;;1.02;0.80;;;14.60;92.60;;;;;;4181610;28;20044;-86
2022/09/01 03:47:53;;;;;;;1.17;0.90;;;14.50;92.60;;;;;;4180237;28;20055;-86
2022/09/01 03:49:55;;;;;;;1.02;0.90;;;14.50;92.60;;;;;;4179773;28;20159;-86
2022/09/01 03:51:56;;;;;;;1.88;1.02;;;14.50;92.60;;;;;;4163043;28;20045;-86
2022/09/01 03:53:58;;;;;;;1.23;0.80;;;14.40;92.60;;;;;;4182956;28;20049;-86
2022/09/01 03:55:58;;;;;;;2.05;0.93;;;14.40;92.70;;;;;;4165506;28;20049;-86
2022/09/01 03:58:05;;;;;;;1.23;0.77;;;14.40;92.70;;;;;;4182703;28;20052;-87
2022/09/01 04:00:12;;;;;;;2.03;1.08;;;14.30;92.70;;;;;;4183242;28;20517;-87
2022/09/01 04:02:15;;;;;;;1.42;0.90;;;14.30;92.80;;;;;;4165319;28;20134;-87
2022/09/01 04:04:16;;;;;;;0.93;0.80;;;14.30;92.80;;;;;;4147722;28;20049;-87
2022/09/01 04:06:20;;;;;;;2.25;1.10;;;14.30;92.90;;;;;;4148587;28;20054;-86
2022/09/01 04:08:27;;;;;;;2.70;1.25;;;14.30;92.90;;;;;;4165743;28;20046;-86
2022/09/01 04:10:33;;;;;;;1.58;1.00;;;14.30;92.90;;;;;;4166461;28;20461;-86
2022/09/01 04:12:35;;;;;;;1.23;0.90;;;14.20;92.90;;;;;;4166222;28;20049;-86
2022/09/01 04:14:36;;;;;;;1.30;1.00;;;14.20;92.90;;;;;;4132572;28;20081;-86
2022/09/01 04:18:56;;;;;;;;;;;14.10;92.90;;;;;;4132890;28;20524;-86
2022/09/01 04:20:58;;;;;;;3.65;1.10;;;14.10;93.30;;;;;;4132253;28;19922;-86
2022/09/01 04:23:00;;;;;;;1.08;0.98;;;14.00;92.90;;;;;;4126686;28;20078;-86
2022/09/01 04:25:00;;;;;;;1.08;0.90;;;14.00;93.00;;;;;;4165911;28;20053;-86
2022/09/01 04:27:02;;;;;;;1.35;1.13;;;13.90;93.10;;;;;;4166312;28;20045;-86
2022/09/01 04:29:03;;;;;;;1.60;0.95;;;13.90;93.20;;;;;;4132946;28;20149;-86
2022/09/01 04:31:08;;;;;;;1.58;1.17;;;13.90;93.30;;;;;;4166440;28;20060;-86
2022/09/01 04:33:10;;;;;;;1.27;1.17;;;13.90;93.40;;;;;;4149034;28;20052;-85
2022/09/01 04:35:15;;;;;;;2.80;1.27;;;13.50;93.30;;;;;;4166417;28;20045;-85
2022/09/01 04:37:20;;;;;;;1.65;1.02;;;13.80;93.40;;;;;;4166473;28;20037;-85
2022/09/01 04:39:22;;;;;;;1.27;1.00;;;13.80;93.40;;;;;;4148208;28;20520;-85
2022/09/01 04:41:26;;;;;;;3.38;1.20;;;13.80;93.50;;;;;;4165213;28;20049;-84
2022/09/01 04:43:27;;;;;;;4.82;1.42;;;13.80;93.60;;;;;;4115894;28;20055;-85
2022/09/01 04:45:28;;;;;;;1.45;1.17;;;13.70;93.60;;;;;;4150073;28;20168;-86
2022/09/01 04:47:28;;;;;;;2.38;1.23;;;13.70;93.70;;;;;;4148558;28;20050;-86
2022/09/01 04:49:32;;;;;;;1.58;1.30;;;13.70;93.80;;;;;;4149951;28;20046;-86
2022/09/01 04:51:34;;;;;;;1.88;1.50;;;13.70;93.70;;;;;;4153584;28;20127;-86
2022/09/01 04:53:39;;;;;;;1.45;1.35;;;13.60;93.90;;;;;;4148331;28;20056;-86
2022/09/01 04:55:43;;;;;;;2.45;1.25;;;13.70;94.00;;;;;;4164981;28;20159;-86
2022/09/01 04:57:48;;;;;;;1.77;1.15;;;13.70;93.90;;;;;;4153760;28;20514;-87
2022/09/01 04:59:48;;;;;;;4.07;2.30;;;13.70;94.00;;;;;;4149931;28;20485;-87
2022/09/01 05:01:53;;;;;;;2.83;1.40;;;13.70;94.00;;;;;;4136913;28;20057;-86
2022/09/01 05:04:00;;;;;;;1.60;1.20;;;13.70;94.00;;;;;;4133766;28;20137;-85
2022/09/01 05:06:02;;;;;;;1.50;1.27;;;13.70;94.00;;;;;;4149828;28;20093;-85
2022/09/01 05:08:04;;;;;;;2.00;1.10;;;13.70;94.10;;;;;;4133510;28;20087;-85
2022/09/01 05:10:06;;;;;;;3.42;1.17;;;13.70;94.10;;;;;;4153175;28;20037;-86
2022/09/01 05:12:10;;;;;;;1.80;1.42;;;13.70;94.20;;;;;;4154117;28;20049;-86
2022/09/01 05:14:12;;;;;;;2.25;1.23;;;13.70;94.40;;;;;;4164409;28;20103;-87
2022/09/01 05:16:20;;;;;;;5.05;1.75;;;13.70;94.30;;;;;;4129054;28;20129;-87
2022/09/01 05:18:23;;;;;;;1.83;1.20;;;13.70;94.30;;;;;;4156362;28;20432;-87
2022/09/01 05:20:24;;;;;;;7.25;1.98;;;13.70;94.30;;;;;;4165750;28;20085;-85
2022/09/01 05:22:25;;;;;;;2.97;1.50;;;13.70;94.30;;;;;;4148559;28;20077;-87
2022/09/01 05:24:29;;;;;;;4.13;1.50;;;13.70;94.40;;;;;;4138686;28;20046;-87
2022/09/01 05:26:33;;;;;;;2.95;1.52;;;13.80;94.50;;;;;;4149959;28;20088;-88
2022/09/01 05:28:34;;;;;;;2.60;1.48;;;13.80;94.50;;;;;;4136675;28;20542;-88
2022/09/01 05:30:38;;;;;;;3.67;1.55;;;13.90;94.60;;;;;;4167962;28;20045;-88
2022/09/01 05:32:39;;;;;;;5.07;2.25;;;13.80;94.60;;;;;;4151487;28;20054;-87
2022/09/01 05:34:44;;;;;;;2.13;1.40;;;13.90;94.60;;;;;;4138427;28;20046;-88
2022/09/01 05:36:49;;;;;;;2.22;1.38;;;13.90;94.70;;;;;;4154130;28;20082;-89
2022/09/01 05:38:51;;;;;;;3.63;1.85;;;13.90;94.60;;;;;;4138323;28;20054;-88
2022/09/01 05:41:03;;;;;;;2.88;1.70;;;13.90;94.70;;;;;;4158498;28;20088;-88
2022/09/01 05:43:04;;;;;;;1.40;1.30;;;14.00;94.80;;;;;;4142833;28;20046;-88
2022/09/01 05:45:05;;;;;;;1.80;1.60;;;14.00;95.10;;;;;;4140738;28;20053;-87
2022/09/01 05:47:07;;;;;;;3.83;1.70;;;14.00;94.80;;;;;;4155122;28;20050;-87
2022/09/01 05:49:12;;;;;;;5.15;1.60;;;14.00;94.80;;;;;;4155053;28;20085;-87
2022/09/01 05:51:18;;;;;;;3.03;1.98;;;14.10;94.80;;;;;;4126216;28;20099;-89
2022/09/01 05:53:24;;;;;;;2.80;1.55;;;14.10;94.90;;;;;;4152766;28;20065;-86
2022/09/01 05:55:26;;;;;;;3.08;1.80;;;14.10;94.90;;;;;;4166201;28;20491;-88
2022/09/01 05:57:27;;;;;;;1.40;1.30;;;14.10;95.00;;;;;;4178346;28;20049;-87
2022/09/01 05:59:32;;;;;;;2.25;1.60;;;14.30;95.10;;;;;;4154183;28;20065;-89
2022/09/01 06:01:32;;;;;;;4.00;1.85;;;14.30;95.10;;;;;;4149763;28;20046;-87
2022/09/01 06:03:34;;;;;;;2.65;1.75;;;14.30;95.20;;;;;;4131671;28;20046;-88
2022/09/01 06:05:35;;;;;;;4.82;1.70;;;14.40;95.20;;;;;;4166231;28;20044;-87
2022/09/01 06:07:39;;;;;;;2.88;1.58;;;14.50;95.20;;;;;;4148276;28;20057;-87
2022/09/01 06:09:47;;;;;;;3.65;1.83;;;14.50;95.20;;;;;;4132590;28;20047;-87
2022/09/01 06:11:48;;;;;;;2.95;1.50;;;14.60;95.20;;;;;;4132111;28;20141;-86
2022/09/01 06:13:51;;;;;;;3.92;1.80;;;14.60;95.30;;;;;;4166139;28;20049;-87
2022/09/01 06:15:57;;;;;;;2.08;1.83;;;14.70;95.40;;;;;;4165540;28;20046;-87
2022/09/01 06:17:59;;;;;;;2.05;1.40;;;14.70;95.40;;;;;;4148379;28;20420;-87
2022/09/01 06:20:00;;;;;;;3.03;1.33;;;14.80;95.50;;;;;;4148003;28;20045;-87
2022/09/01 06:22:01;;;;;;;2.88;1.90;;;15.10;95.50;;;;;;4148258;28;20042;-86
2022/09/01 06:24:05;;;;;;;1.85;1.52;;;14.90;95.40;;;;;;4147897;28;20124;-87
2022/09/01 06:26:25;;;;;;;3.42;2.00;;;15.00;95.60;;;;;;4165512;28;20049;-87
2022/09/01 06:28:28;;;;;;;2.10;1.40;;;14.90;95.60;;;;;;4148099;28;20493;-87
2022/09/01 06:30:29;;;;;;;2.00;1.35;;;15.00;95.70;;;;;;4166269;28;20456;-89
2022/09/01 06:32:33;;;;;;;2.20;1.90;;;15.00;95.80;;;;;;4168751;28;20091;-87
2022/09/01 06:34:34;;;;;;;2.38;1.85;;;14.60;95.70;;;;;;4165243;28;20041;-87
2022/09/01 06:36:39;;;;;;;2.42;1.27;;;15.00;95.90;;;;;;4165635;28;20056;-88
2022/09/01 06:38:41;;;;;;;7.57;2.90;;;15.00;95.90;;;;;;4165865;28;20099;-87
2022/09/01 06:40:42;;;;;;;5.80;2.50;;;15.10;96.00;;;;;;4147656;28;20634;-88
2022/09/01 06:42:47;;;;;;;1.92;1.40;;;15.00;96.00;;;;;;4147800;28;20097;-87
2022/09/01 06:44:47;;;;;;;3.67;1.85;;;15.10;96.00;;;;;;4147734;28;20046;-86
2022/09/01 06:46:49;;;;;;;2.20;1.60;;;15.20;96.00;;;;;;4148711;28;20566;-87
2022/09/01 06:48:52;;;;;;;3.90;1.75;;;15.40;95.90;;;;;;4148727;28;20054;-88
2022/09/01 06:51:03;;;;;;;2.95;1.75;;;15.60;95.80;;;;;;4144205;28;20121;-87
2022/09/01 06:53:09;;;;;;;2.03;1.55;;;16.00;95.70;;;;;;4126995;28;20061;-88
2022/09/01 06:55:12;;;;;;;1.55;1.25;;;16.10;95.50;;;;;;4135575;28;20448;-88
2022/09/01 06:57:13;;;;;;;4.22;1.42;;;16.30;95.20;;;;;;4134775;28;20058;-88
2022/09/01 06:59:14;;;;;;;3.08;1.60;;;16.30;95.10;;;;;;4147106;28;20066;-88
2022/09/01 07:01:18;;;;;;;1.60;1.48;;;16.40;95.10;;;;;;4167817;28;20041;-89
2022/09/01 07:03:21;;;;;;;3.25;1.55;;;16.40;95.20;;;;;;4132985;28;20139;-87
2022/09/01 07:05:23;;;;;;;1.92;1.27;;;16.40;95.20;;;;;;4136377;28;20066;-89
2022/09/01 07:07:26;;;;;;;1.92;1.40;;;16.40;95.20;;;;;;4162714;28;20124;-88
2022/09/01 07:09:28;;;;;;;1.80;1.08;;;16.40;95.20;;;;;;4130211;28;20053;-87
2022/09/01 07:11:31;;;;;;;2.55;1.38;;;16.40;95.30;;;;;;4145266;28;20047;-87
2022/09/01 07:13:34;;;;;;;3.58;1.45;;;16.40;95.30;;;;;;4179497;28;20096;-88
2022/09/01 07:15:40;;;;;;;1.77;1.27;;;16.40;95.30;;;;;;4149256;28;20081;-87
2022/09/01 07:17:41;;;;;;;1.25;1.00;;;16.40;95.20;;;;;;4166449;28;20115;-88
2022/09/01 07:19:42;;;;;;;2.67;1.20;;;16.40;95.20;;;;;;4165093;28;20068;-86
2022/09/01 07:21:43;;;;;;;3.63;1.00;;;16.50;95.30;;;;;;4165923;28;20099;-87
2022/09/01 07:23:45;;;;;;;2.17;1.33;;;16.60;95.30;;;;;;4153620;28;20046;-86
2022/09/01 07:25:53;;;;;;;5.97;1.35;;;16.70;95.20;;;;;;4149264;28;20534;-86
2022/09/01 07:27:56;;;;;;;2.67;1.10;;;16.80;95.10;;;;;;4135580;28;20056;-86
2022/09/01 07:29:56;;;;;;;2.08;1.30;;;16.90;95.10;;;;;;4185307;28;20041;-86
2022/09/01 07:31:58;;;;;;;4.13;1.10;;;17.00;94.90;;;;;;4167597;28;20395;-86
2022/09/01 07:34:03;;;;;;;1.60;1.10;;;17.10;94.80;;;;;;4184139;28;20076;-84
2022/09/01 07:36:05;;;;;;;2.58;1.17;;;17.20;94.70;;;;;;4173008;28;20091;-85
2022/09/01 07:38:08;;;;;;;2.17;1.17;;;17.30;94.60;;;;;;4167621;28;20582;-85
2022/09/01 07:40:18;;;;;;;4.13;1.20;;;17.40;94.50;;;;;;4165670;28;20061;-83
2022/09/01 07:42:20;;;;;;;1.13;1.00;;;17.40;94.30;;;;;;4133658;28;20107;-85
2022/09/01 07:44:21;;;;;;;1.33;1.02;;;17.50;94.10;;;;;;4134043;28;20081;-85
2022/09/01 07:46:24;;;;;;;1.55;0.90;;;17.60;93.90;;;;;;4151151;28;20046;-84
2022/09/01 07:48:27;;;;;;;2.20;1.15;;;17.70;93.60;;;;;;4151273;28;20041;-85
2022/09/01 07:50:29;;;;;;;3.00;0.98;;;17.90;93.40;;;;;;4133853;28;20420;-85
2022/09/01 07:52:32;;;;;;;2.10;1.20;;;18.20;93.30;;;;;;4136032;28;20049;-85
2022/09/01 07:54:36;;;;;;;4.35;1.55;;;18.50;93.10;;;;;;4167927;28;20049;-85
2022/09/01 07:56:39;;;;;;;2.13;1.20;;;18.90;92.90;;;;;;4167739;28;20064;-85
2022/09/01 07:58:41;;;;;;;3.72;1.35;;;19.00;92.50;;;;;;4166948;28;20045;-85
2022/09/01 08:00:48;;;;;;;2.63;1.00;;;19.20;92.40;;;;;;4133726;28;20046;-84
2022/09/01 08:02:51;;;;;;;2.58;1.10;;;19.20;92.10;;;;;;4149807;28;20056;-84
2022/09/01 08:04:52;;;;;;;3.28;1.20;;;19.30;92.00;;;;;;4167133;28;20048;-85
2022/09/01 08:06:54;;;;;;;4.45;1.40;;;19.20;91.90;;;;;;4172037;28;20522;-84
2022/09/01 08:08:59;;;;;;;2.60;1.02;;;19.10;92.00;;;;;;4178386;28;20052;-84
2022/09/01 08:11:00;;;;;;;3.47;1.50;;;19.10;92.00;;;;;;4173722;28;20045;-85
2022/09/01 08:13:01;;;;;;;1.98;1.30;;;19.00;92.10;;;;;;4158085;28;20056;-84
2022/09/01 08:15:04;;;;;;;2.33;1.15;;;19.00;92.10;;;;;;4170277;28;20041;-84
2022/09/01 08:17:06;;;;;;;4.95;1.50;;;19.10;92.10;;;;;;4167561;28;20045;-86
2022/09/01 08:19:06;;;;;;;1.50;1.20;;;19.10;92.10;;;;;;4168661;28;20084;-86
2022/09/01 08:21:10;;;;;;;6.43;1.25;;;19.00;92.10;;;;;;4151849;28;20575;-87
2022/09/01 08:23:13;;;;;;;3.63;1.30;;;19.00;92.00;;;;;;4151354;28;20124;-87
2022/09/01 08:25:15;;;;;;;4.60;1.58;;;19.00;92.00;;;;;;4151444;28;20062;-87
2022/09/01 08:27:16;;;;;;;3.20;1.30;;;19.20;91.90;;;;;;4165242;28;20077;-87
2022/09/01 08:29:17;;;;;;;2.08;1.23;;;19.30;91.70;;;;;;4134859;28;20656;-87
2022/09/01 08:31:20;;;;;;;2.72;1.48;;;19.30;91.40;;;;;;4134756;28;20069;-87
2022/09/01 08:33:21;;;;;;;2.00;1.10;;;19.90;91.20;;;;;;4153772;28;20046;-87
2022/09/01 08:35:23;;;;;;;4.00;1.25;;;20.20;90.90;;;;;;4133986;28;20116;-87
2022/09/01 08:37:25;;;;;;;2.85;1.13;;;20.60;90.70;;;;;;4135997;28;20543;-87
2022/09/01 08:39:26;;;;;;;3.70;1.10;;;20.80;89.90;;;;;;4140061;28;20056;-87
2022/09/01 08:42:04;;;;;;;2.25;1.20;;;20.90;89.50;;;;;;4166963;28;20451;-86
2022/09/01 08:44:28;;;;;;;3.15;1.20;;;21.10;89.50;;;;;;4151007;28;20061;-87
2022/09/01 08:46:33;;;;;;;4.30;1.25;;;21.50;88.40;;;;;;4150917;28;20046;-86
2022/09/01 08:48:42;;;;;;;2.22;1.30;;;21.90;87.80;;;;;;4168280;28;20045;-87
2022/09/01 08:50:51;;;;;;;4.93;1.02;;;22.10;86.90;;;;;;4152872;28;20554;-87
2022/09/01 08:53:02;;;;;;;2.25;1.10;;;22.00;85.90;;;;;;4135801;28;20605;-87
2022/09/01 08:55:21;;;;;;;3.92;1.02;;;22.00;85.60;;;;;;4169161;28;20073;-88
2022/09/01 08:57:37;;;;;;;5.25;1.20;;;22.20;84.90;;;;;;4134808;28;20456;-87
2022/09/01 08:59:39;;;;;;;5.78;1.00;;;22.50;83.80;;;;;;4151237;28;20050;-87
2022/09/01 09:02:10;;;;;;;1.75;0.80;;;22.70;83.80;;;;;;4150628;28;20038;-86
2022/09/01 09:04:14;;;;;;;1.45;0.80;;;22.90;80.30;;;;;;4164399;28;20407;-86
2022/09/01 09:06:36;;;;;;;2.58;1.13;;;23.00;82.00;;;;;;4156210;28;20049;-87
2022/09/01 09:08:37;;;;;;;3.35;1.23;;;23.40;80.90;;;;;;4161072;28;20069;-87
2022/09/01 09:11:14;;;;;;;5.38;1.17;;;23.60;80.10;;;;;;4168688;28;20052;-87
2022/09/01 09:13:39;;;;;;;3.42;0.70;;;23.80;78.80;;;;;;4169435;28;20117;-86
2022/09/01 09:15:46;;;;;;;2.50;1.10;;;24.00;77.70;;;;;;4134175;28;20097;-86
2022/09/01 09:17:58;;;;;;;1.63;0.68;;;24.40;77.80;;;;;;4119088;28;20542;-87
2022/09/01 09:20:00;;;;;;;1.55;0.95;;;24.60;76.70;;;;;;4135522;28;20034;-87
2022/09/01 09:22:09;;;;;;;4.88;0.80;;;24.80;76.30;;;;;;4134770;28;20049;-87
2022/09/01 09:24:45;;;;;;;2.15;0.95;;;25.00;75.10;;;;;;4134687;28;20054;-87
2022/09/01 09:26:52;;;;;;;2.03;1.02;;;25.10;73.90;;;;;;4139962;28;20054;-86
2022/09/01 09:28:53;;;;;;;4.45;0.80;;;25.40;74.30;;;;;;4147720;28;20129;-87
2022/09/01 09:31:24;;;;;;;2.70;0.80;;;25.50;73.60;;;;;;4149891;28;20082;-87
2022/09/01 09:33:37;;;;;;;1.90;0.73;;;25.70;70.20;;;;;;4112690;28;20063;-87
2022/09/01 09:35:43;;;;;;;2.35;0.80;;;25.60;70.60;;;;;;4150594;28;20053;-87
2022/09/01 09:37:45;;;;;;;5.15;0.50;;;25.70;70.70;;;;;;4116955;28;20595;-86
2022/09/01 09:40:09;;;;;;;1.85;0.60;;;25.90;70.30;;;;;;4150161;28;20496;-86
2022/09/01 09:42:13;;;;;;;1.50;0.40;;;26.20;67.90;;;;;;4150273;28;20089;-88
2022/09/01 09:44:41;;;;;;;1.75;0.50;;;26.70;68.00;;;;;;4146857;28;20443;-87
2022/09/01 09:46:44;;;;;;;2.70;1.05;;;27.10;63.40;;;;;;4167707;28;20053;-86
2022/09/01 09:48:47;;;;;;;2.17;0.88;;;27.30;64.90;;;;;;4167510;28;20128;-86
2022/09/01 09:50:48;;;;;;;0.88;0.30;;;27.60;64.30;;;;;;4166048;28;20052;-86
2022/09/01 09:52:52;;;;;;;2.15;0.50;;;27.70;63.00;;;;;;4133889;28;20575;-87
2022/09/01 09:55:22;;;;;;;0.75;0.30;;;27.90;61.60;;;;;;4164075;28;20049;-86
2022/09/01 09:57:24;;;;;;;0.40;0.30;;;28.00;59.60;;;;;;4137708;28;20050;-85
2022/09/01 09:59:30;;;;;;;0.50;0.40;;;27.90;60.60;;;;;;4155665;28;20060;-85
2022/09/01 10:01:31;;;;;;;0.40;0.30;;;27.90;59.50;;;;;;4161644;28;20056;-85
2022/09/01 10:03:49;;;;;;;1.40;0.40;;;28.20;60.40;;;;;;4163725;28;20049;-86
2022/09/01 10:05:51;;;;;;;2.05;0.40;;;28.20;57.80;;;;;;4140894;28;20074;-86
2022/09/01 10:07:54;;;;;;;1.45;0.45;;;28.40;59.50;;;;;;4136291;28;20053;-87
2022/09/01 10:09:59;;;;;;;0.43;0.40;;;28.70;59.00;;;;;;4153463;28;20046;-85
2022/09/01 10:12:02;;;;;;;0.70;0.30;;;28.70;58.00;;;;;;4141283;28;20046;-85
2022/09/01 10:14:19;;;;;;;0.98;0.40;;;28.80;57.50;;;;;;4151416;28;20646;-86
2022/09/01 10:16:29;;;;;;;0.93;0.30;;;28.80;55.60;;;;;;4137507;28;20073;-86
2022/09/01 10:18:39;;;;;;;1.15;0.40;;;28.90;56.10;;;;;;4127070;28;20547;-85
2022/09/01 10:20:52;;;;;;;2.70;1.05;;;29.10;55.20;;;;;;4150186;28;20160;-86
2022/09/01 10:22:55;;;;;;;1.48;0.40;;;29.00;55.20;;;;;;4162405;28;20042;-86
2022/09/01 10:24:56;;;;;;;1.80;0.40;;;29.20;55.20;;;;;;4152416;28;20037;-87
2022/09/01 10:27:15;;;;;;;0.52;0.30;;;29.20;55.30;;;;;;4165331;28;20452;-88
2022/09/01 10:29:35;;;;;;;0.55;0.50;;;29.40;53.80;;;;;;4132676;28;20042;-87
2022/09/01 10:31:38;;;;;;;0.55;0.30;;;29.50;52.30;;;;;;4130974;28;20050;-87
2022/09/01 10:33:39;;;;;;;1.45;0.40;;;29.50;54.50;;;;;;4148334;28;20046;-87
2022/09/01 10:35:44;;;;;;;0.63;0.30;;;29.40;53.70;;;;;;4153714;28;20037;-88
2022/09/01 10:37:48;;;;;;;1.50;0.50;;;29.40;53.70;;;;;;4131983;28;20056;-87
2022/09/01 10:40:10;;;;;;;2.85;0.70;;;29.50;53.20;;;;;;4151127;28;20424;-86
2022/09/01 10:42:17;;;;;;;0.90;0.40;;;29.70;51.10;;;;;;4148566;28;20484;-87
2022/09/01 10:44:21;;;;;;;0.80;0.28;;;29.90;52.20;;;;;;4130894;28;20488;-88
2022/09/01 10:46:23;;;;;;;0.63;0.35;;;29.60;51.40;;;;;;4130849;28;20523;-88
2022/09/01 10:48:35;;;;;;;0.88;0.40;;;29.50;51.90;;;;;;4149266;28;20041;-88
2022/09/01 10:50:36;;;;;;;0.20;0.20;;;29.70;51.40;;;;;;4147772;28;20054;-88
2022/09/01 10:52:51;;;;;;;3.25;0.30;;;29.90;51.90;;;;;;4148162;28;20053;-87
2022/09/01 10:54:59;;;;;;;0.98;0.30;;;30.20;50.50;;;;;;4148400;28;20050;-88
2022/09/01 10:57:00;;;;;;;0.98;0.40;;;30.40;49.60;;;;;;4155278;28;20077;-86